Airfield :
LOGIN :

Register | Disclaimer

   EN    FR    IT 

 










Legend :    VFR   Marginal VFR   IFR   Intensive IFR   Very Intensive IFR
Visi :
Ceiling :
>= 8 km
>= 3000ft
5 to 8 km
1000 to 3000 ft
1500m to 5 km
500 to 1000 ft
800 to 1500m
200 to 500 ft
< 800m
< 200 ft
Symbols :   Thunderstorms  Fog  Heavy snow  Heavy precipitations  Wind > 20 kt
SIGMETs :     Misc.  Thunderstorms  Icing  Turbulence  Mountain Waves  Volcanic Ashes






- Airport Elevation : 291 ft
- IATA code : ORY


LFPO - Paris-Orly

CURRENT METAR :
  • 081000Z 23005KT 190V250 9999 OVC009 02/01 Q1011 NOSIG

EXPIRED METARs :
  • 080930Z 21004KT 170V270 9999 OVC009 02/01 Q1012 NOSIG
  • 080900Z 26005KT 9000 FEW005 BKN011 02/01 Q1012 NOSIG
  • 080830Z 24004KT 200V270 8000 FEW005 BKN011 BKN064 02/01 Q1012 NOSIG
  • 080800Z 22003KT 4000 BR SCT003 BKN013 BKN064 02/01 Q1012 BECMG 6000
  • 080730Z 27003KT 3100 BR BKN003 BKN017 02/01 Q1012 TEMPO 2000 BR

TAF TAF LFPO
Valid from the 08 at 06:00 until the 09 at 12:00 UTC


080500Z 0806/0912 VRB03KT 9999 SCT006 BKN020 BKN040
TEMPO 0806/0810 3500 BR BKN003
PROB40
TEMPO 0806/0808 0700 FG VV///
BECMG 0810/0813 BKN012
PROB30
TEMPO 0813/0821 BKN016
PROB40
TEMPO 0900/0907 4000 BR BKN008
PROB30
TEMPO 0902/0906 2500 BR BKN004
ATIS : +33 1 49 75 65 80



MET'MAP, your aeronautical weather chart ! - Copyright ORBIFLY December 2007 - Disclaimer

ORBIFLY MET'MAP TEAM :

Programming & Development : Alexandra Zaïnal
Original concept : Baudouin d'Aumeries
Technical & hardware support : Manuel Goepfert
Assistance : Marc-Olivier Méhu




SOURCES & CREDITS :

   NOAA